Time;durP1;ratioP1;P1;durP2;ratioP2;P2;SDS_P1;SDS_P2;PMS_P1;PMS_P2;Temp;Humidity;BMP_temperature;BMP_pressure;BME280_temperature;BME280_humidity;BME280_pressure;Samples;Min_cycle;Max_cycle;Signal;HPM_P1;HPM_P2
2023/05/06 00:04:46;;;;;;;12.38;7.03;;;24.30;62.00;;;;;;10534956;28;20052;-24
2023/05/06 00:09:48;;;;;;;10.05;6.25;;;24.20;62.20;;;;;;10528195;28;20067;-24
2023/05/06 00:14:50;;;;;;;9.02;5.82;;;24.20;62.30;;;;;;10526475;28;20468;-23
2023/05/06 00:19:57;;;;;;;8.93;5.53;;;24.10;62.40;;;;;;10522087;28;20135;-23
2023/05/06 00:24:59;;;;;;;7.65;5.13;;;24.10;62.50;;;;;;10531861;28;20040;-23
2023/05/06 00:30:01;;;;;;;6.57;4.15;;;24.10;62.60;;;;;;10529235;28;20135;-25
2023/05/06 00:35:05;;;;;;;6.03;3.90;;;24.00;62.80;;;;;;10523528;28;20051;-24
2023/05/06 00:40:09;;;;;;;4.20;3.03;;;24.10;63.00;;;;;;10535130;28;20076;-24
2023/05/06 00:45:11;;;;;;;5.00;3.72;;;24.00;63.20;;;;;;10539952;28;20040;-24
2023/05/06 00:50:15;;;;;;;3.95;3.13;;;23.90;63.30;;;;;;10516153;28;20042;-25
2023/05/06 00:55:17;;;;;;;4.93;2.65;;;23.90;63.60;;;;;;10524826;28;20055;-23
2023/05/06 01:00:20;;;;;;;3.67;2.13;;;23.90;64.00;;;;;;10528457;28;20508;-23
2023/05/06 01:05:26;;;;;;;7.57;3.03;;;23.80;64.20;;;;;;10514060;28;20052;-24
2023/05/06 01:10:34;;;;;;;6.43;3.88;;;23.80;64.40;;;;;;10523388;28;20101;-23
2023/05/06 01:15:40;;;;;;;9.02;4.40;;;23.80;64.70;;;;;;10519634;28;20471;-24
2023/05/06 01:20:48;;;;;;;6.60;3.60;;;23.80;64.80;;;;;;10527739;28;20047;-24
2023/05/06 01:25:51;;;;;;;4.20;2.65;;;23.70;65.00;;;;;;10532013;28;20415;-23
2023/05/06 01:30:59;;;;;;;8.93;2.88;;;23.70;65.10;;;;;;10529045;28;20543;-25
2023/05/06 01:36:11;;;;;;;6.63;2.55;;;23.70;65.20;;;;;;10527485;28;20134;-25
2023/05/06 01:41:16;;;;;;;6.13;2.95;;;23.60;65.20;;;;;;10528878;28;20554;-23
2023/05/06 01:46:20;;;;;;;3.30;2.50;;;23.60;65.30;;;;;;10509912;28;20606;-24
2023/05/06 01:51:22;;;;;;;5.07;2.83;;;23.60;65.30;;;;;;10526169;28;20127;-24
2023/05/06 01:56:25;;;;;;;4.63;2.67;;;23.60;65.30;;;;;;10518545;28;20048;-24
2023/05/06 02:01:27;;;;;;;4.72;1.95;;;23.50;65.30;;;;;;10514814;28;20549;-23
2023/05/06 02:06:29;;;;;;;5.55;2.20;;;23.50;65.30;;;;;;10531900;28;20117;-25
2023/05/06 02:11:33;;;;;;;3.38;2.30;;;23.50;65.30;;;;;;10529610;28;20064;-24
2023/05/06 02:16:34;;;;;;;6.55;3.72;;;23.50;65.30;;;;;;10538535;28;20105;-25
2023/05/06 02:21:36;;;;;;;;;;;23.40;65.40;;;;;;10536777;28;20044;-24
2023/05/06 02:26:39;;;;;;;4.75;3.35;;;23.40;65.60;;;;;;10535593;28;20261;-23
2023/05/06 02:31:41;;;;;;;4.15;3.42;;;23.40;65.70;;;;;;10536983;28;20075;-23
2023/05/06 02:36:43;;;;;;;;;;;23.40;65.80;;;;;;10522677;28;20599;-24
2023/05/06 02:41:46;;;;;;;9.15;3.75;;;23.30;65.90;;;;;;10530252;28;20419;-24
2023/05/06 02:46:48;;;;;;;4.32;2.85;;;23.30;65.90;;;;;;10538527;28;20044;-25
2023/05/06 02:51:50;;;;;;;5.93;4.32;;;23.20;65.90;;;;;;10549180;28;20067;-24
2023/05/06 02:56:53;;;;;;;;;;;23.30;66.00;;;;;;10534593;28;20062;-24
2023/05/06 03:01:55;;;;;;;6.85;4.43;;;23.20;66.20;;;;;;10538860;28;19974;-24
2023/05/06 03:06:57;;;;;;;5.72;3.10;;;23.20;66.00;;;;;;10530034;28;20404;-25
2023/05/06 03:12:00;;;;;;;;;;;23.20;66.30;;;;;;10526488;28;20051;-25
2023/05/06 03:17:03;;;;;;;4.63;3.00;;;23.10;66.10;;;;;;10530703;28;20002;-24
2023/05/06 03:22:05;;;;;;;7.32;3.25;;;23.10;66.10;;;;;;10525112;28;20444;-24
2023/05/06 03:27:08;;;;;;;6.18;3.58;;;23.10;66.10;;;;;;10524243;28;20492;-24
2023/05/06 03:32:10;;;;;;;5.88;3.15;;;23.10;66.10;;;;;;10535438;28;20043;-24
2023/05/06 03:37:11;;;;;;;;;;;23.00;66.10;;;;;;10531961;28;20072;-24
2023/05/06 03:42:15;;;;;;;5.93;3.40;;;23.00;66.20;;;;;;10530541;28;19955;-23
2023/05/06 03:47:17;;;;;;;3.97;3.10;;;23.00;66.10;;;;;;10520856;28;20152;-23
2023/05/06 03:52:19;;;;;;;4.82;3.47;;;23.00;66.10;;;;;;10517876;28;20068;-24
2023/05/06 03:57:22;;;;;;;5.28;3.35;;;23.00;66.10;;;;;;10526952;28;20051;-24
2023/05/06 04:02:24;;;;;;;4.43;3.15;;;22.90;66.00;;;;;;10514087;28;20461;-24
2023/05/06 04:07:26;;;;;;;3.83;2.70;;;22.90;66.10;;;;;;10524200;28;20098;-24
2023/05/06 04:12:29;;;;;;;3.83;2.90;;;22.90;66.10;;;;;;10533252;28;20082;-23
2023/05/06 04:17:31;;;;;;;3.80;2.70;;;22.80;66.10;;;;;;10531775;28;20054;-24
2023/05/06 04:22:33;;;;;;;;;;;22.80;66.10;;;;;;10519705;28;20043;-24
2023/05/06 04:27:36;;;;;;;3.60;2.55;;;22.80;66.30;;;;;;10528151;28;19926;-23
2023/05/06 04:32:39;;;;;;;5.93;2.40;;;22.80;66.40;;;;;;10529137;28;20101;-24
2023/05/06 04:37:42;;;;;;;4.30;2.85;;;22.80;66.30;;;;;;10517043;28;20122;-23
2023/05/06 04:42:46;;;;;;;4.32;2.55;;;22.70;66.50;;;;;;10513455;28;20102;-24
2023/05/06 04:47:47;;;;;;;3.55;2.60;;;22.70;66.60;;;;;;10527262;28;20082;-23
2023/05/06 04:52:49;;;;;;;4.57;2.20;;;22.70;66.60;;;;;;10516475;28;20460;-24
2023/05/06 04:57:52;;;;;;;;;;;22.70;66.60;;;;;;10507440;28;20094;-24
2023/05/06 05:02:54;;;;;;;4.43;2.42;;;22.70;66.40;;;;;;10511789;28;20027;-23
2023/05/06 05:07:56;;;;;;;4.60;2.90;;;22.80;66.60;;;;;;10528841;28;20066;-25
2023/05/06 05:13:00;;;;;;;4.18;2.20;;;22.80;66.10;;;;;;10527275;28;20036;-23
2023/05/06 05:18:02;;;;;;;3.88;2.22;;;22.80;66.10;;;;;;10523411;28;20136;-23
2023/05/06 05:23:04;;;;;;;2.83;1.92;;;22.80;66.10;;;;;;10520294;28;20044;-24
2023/05/06 05:28:07;;;;;;;5.03;2.75;;;22.70;66.10;;;;;;10522094;28;20075;-23
2023/05/06 05:33:09;;;;;;;3.08;2.53;;;22.80;66.10;;;;;;10525485;28;20048;-24
2023/05/06 05:38:13;;;;;;;;;;;22.70;66.10;;;;;;10515543;28;20059;-24
2023/05/06 05:43:16;;;;;;;3.30;1.98;;;22.80;66.10;;;;;;10520381;28;20304;-22
2023/05/06 05:48:18;;;;;;;6.00;2.13;;;22.80;66.20;;;;;;10523054;28;20152;-24
2023/05/06 05:53:20;;;;;;;2.13;1.67;;;22.70;66.10;;;;;;10530539;28;20072;-23
2023/05/06 05:58:23;;;;;;;3.10;2.00;;;22.70;66.20;;;;;;10521116;28;20051;-24
2023/05/06 06:03:25;;;;;;;4.78;2.03;;;22.70;66.10;;;;;;10531120;28;20081;-23
2023/05/06 06:08:28;;;;;;;3.90;2.03;;;22.80;66.10;;;;;;10529402;28;20155;-23
2023/05/06 06:13:31;;;;;;;5.30;2.55;;;22.80;66.30;;;;;;10517847;28;20421;-23
2023/05/06 06:18:33;;;;;;;5.82;2.97;;;22.80;66.40;;;;;;10526689;28;20102;-24
2023/05/06 06:23:35;;;;;;;;;;;22.80;66.60;;;;;;10515254;28;20051;-23
2023/05/06 06:28:39;;;;;;;4.43;3.30;;;22.80;66.60;;;;;;10515881;28;19959;-24
2023/05/06 06:33:41;;;;;;;4.63;3.53;;;22.80;66.60;;;;;;10516179;28;20135;-24
2023/05/06 06:38:42;;;;;;;5.18;3.45;;;22.80;66.40;;;;;;10516496;28;20147;-24
2023/05/06 06:43:46;;;;;;;9.30;4.65;;;22.80;66.30;;;;;;10513841;28;20052;-24
2023/05/06 06:48:48;;;;;;;10.65;3.95;;;22.90;65.90;;;;;;10535827;28;20075;-24
2023/05/06 06:53:51;;;;;;;6.55;3.00;;;22.60;65.70;;;;;;10517964;28;20083;-24
2023/05/06 06:58:54;;;;;;;7.95;2.55;;;22.60;65.90;;;;;;10529744;28;20464;-23
2023/05/06 07:03:56;;;;;;;4.03;2.38;;;22.50;65.90;;;;;;10525765;28;20063;-24
2023/05/06 07:08:58;;;;;;;5.00;2.00;;;22.60;65.80;;;;;;10524561;28;20044;-24
2023/05/06 07:14:01;;;;;;;7.65;2.40;;;22.60;65.20;;;;;;10495265;28;20048;-24
2023/05/06 07:19:03;;;;;;;4.28;1.70;;;22.90;78.50;;;;;;10514992;28;20398;-25
2023/05/06 07:24:05;;;;;;;;;;;23.50;81.00;;;;;;10525464;28;20151;-25
2023/05/06 07:29:08;;;;;;;6.22;1.92;;;23.30;79.60;;;;;;10529307;28;19939;-24
2023/05/06 07:34:10;;;;;;;2.92;1.90;;;23.50;77.60;;;;;;10525310;28;20036;-24
2023/05/06 07:39:13;;;;;;;5.03;1.85;;;23.10;72.10;;;;;;10523397;28;20055;-24
2023/05/06 07:44:16;;;;;;;5.32;2.20;;;23.00;71.10;;;;;;10518500;28;20075;-23
2023/05/06 07:49:18;;;;;;;4.43;1.92;;;23.10;69.90;;;;;;10523558;28;20139;-23
2023/05/06 07:54:20;;;;;;;4.95;2.10;;;23.30;77.80;;;;;;10521841;28;20142;-24
2023/05/06 07:59:23;;;;;;;;;;;23.50;72.60;;;;;;10503536;28;20144;-25
2023/05/06 08:04:25;;;;;;;4.43;1.95;;;23.30;71.60;;;;;;10524118;28;19920;-24
2023/05/06 08:09:27;;;;;;;;;;;23.20;70.40;;;;;;10521052;28;20492;-27
2023/05/06 08:14:30;;;;;;;18.10;8.30;;;23.30;68.70;;;;;;10525499;28;20043;-24
2023/05/06 08:19:32;;;;;;;11.02;6.72;;;23.00;64.70;;;;;;10518010;28;20068;-24
2023/05/06 08:24:33;;;;;;;;;;;22.50;70.90;;;;;;10527907;28;20048;-23
2023/05/06 08:29:37;;;;;;;5.43;2.83;;;23.10;68.50;;;;;;10523988;28;20009;-24
2023/05/06 08:34:38;;;;;;;6.22;2.85;;;23.20;67.50;;;;;;10510833;28;20049;-24
2023/05/06 08:39:40;;;;;;;;;;;23.30;66.60;;;;;;10524370;28;20044;-23
2023/05/06 08:44:44;;;;;;;5.80;2.53;;;23.40;66.40;;;;;;10520567;28;19924;-23
2023/05/06 08:49:46;;;;;;;9.20;3.38;;;22.60;70.50;;;;;;10519716;28;20056;-24
2023/05/06 08:54:47;;;;;;;;;;;23.20;67.50;;;;;;10525198;28;20135;-24
2023/05/06 08:59:51;;;;;;;9.40;3.30;;;22.30;72.70;;;;;;10515375;28;19935;-23
2023/05/06 09:04:55;;;;;;;7.95;3.55;;;21.90;76.60;;;;;;10522206;28;20059;-23
2023/05/06 09:09:56;;;;;;;11.98;3.72;;;23.10;69.20;;;;;;10527134;28;20078;-24
2023/05/06 09:15:00;;;;;;;7.20;3.45;;;23.30;68.40;;;;;;10514936;28;20209;-23
2023/05/06 09:20:05;;;;;;;8.32;3.35;;;23.40;68.70;;;;;;10521599;28;20490;-23
2023/05/06 09:25:08;;;;;;;11.45;4.45;;;23.50;68.50;;;;;;10525474;28;20079;-23
2023/05/06 09:30:12;;;;;;;11.68;5.30;;;23.60;67.40;;;;;;10513637;28;20055;-23
2023/05/06 09:35:14;;;;;;;9.27;4.32;;;23.60;66.70;;;;;;10523564;28;20625;-23
2023/05/06 09:40:17;;;;;;;8.63;4.65;;;23.70;66.10;;;;;;10522003;28;20144;-22
2023/05/06 09:45:23;;;;;;;8.65;4.82;;;23.70;65.80;;;;;;10528933;28;20048;-23
2023/05/06 09:50:26;;;;;;;10.48;4.80;;;23.80;65.40;;;;;;10524206;28;20051;-24
2023/05/06 09:55:29;;;;;;;12.00;4.70;;;23.80;65.30;;;;;;10514139;28;20056;-23
2023/05/06 10:00:33;;;;;;;15.65;4.82;;;23.90;64.90;;;;;;10508949;28;20153;-23
2023/05/06 10:05:36;;;;;;;10.57;4.75;;;23.90;64.50;;;;;;10523898;28;20052;-23
2023/05/06 10:10:41;;;;;;;17.23;5.00;;;24.10;64.30;;;;;;10520982;28;20134;-23
2023/05/06 10:15:46;;;;;;;9.48;4.63;;;24.10;63.70;;;;;;10516582;28;20118;-24
2023/05/06 10:20:50;;;;;;;8.23;3.90;;;24.20;63.40;;;;;;10514123;28;20056;-24
2023/05/06 10:25:56;;;;;;;9.88;3.95;;;24.20;63.00;;;;;;10523344;28;20044;-24
2023/05/06 10:31:00;;;;;;;7.13;3.85;;;24.30;62.90;;;;;;10535483;28;20067;-24
2023/05/06 10:36:13;;;;;;;4.90;3.20;;;24.30;62.70;;;;;;10533029;28;20105;-25
2023/05/06 10:41:16;;;;;;;5.85;3.30;;;24.30;62.50;;;;;;10544469;28;20085;-24
2023/05/06 10:46:19;;;;;;;6.47;3.38;;;24.30;62.40;;;;;;10530968;28;20075;-26
2023/05/06 10:51:26;;;;;;;6.30;2.88;;;24.50;62.00;;;;;;10525484;28;20492;-24
2023/05/06 10:56:28;;;;;;;5.85;2.72;;;24.50;62.00;;;;;;10518039;28;20402;-25
2023/05/06 11:01:32;;;;;;;10.73;4.97;;;24.70;62.20;;;;;;10530857;28;20062;-24
2023/05/06 11:06:45;;;;;;;7.68;3.00;;;24.10;62.00;;;;;;10531309;28;20064;-23
2023/05/06 11:11:59;;;;;;;7.70;4.05;;;24.60;63.10;;;;;;10529975;28;20044;-25
2023/05/06 11:17:06;;;;;;;10.43;4.18;;;24.30;62.30;;;;;;10533304;28;20119;-24
2023/05/06 11:22:08;;;;;;;8.07;3.42;;;22.90;68.90;;;;;;10527366;28;20089;-24
2023/05/06 11:27:10;;;;;;;;;;;23.70;68.90;;;;;;10524395;28;20087;-24
2023/05/06 11:32:23;;;;;;;5.55;2.17;;;23.90;69.30;;;;;;10539511;28;20393;-24
2023/05/06 11:37:26;;;;;;;4.38;3.35;;;24.50;64.70;;;;;;10529102;28;20170;-24
2023/05/06 11:42:28;;;;;;;8.82;4.15;;;23.20;63.40;;;;;;10527509;28;20482;-24
2023/05/06 11:47:32;;;;;;;3.55;2.25;;;23.30;67.50;;;;;;10532588;28;20048;-23
2023/05/06 11:52:35;;;;;;;6.30;2.00;;;24.90;65.20;;;;;;10532529;28;20063;-24
2023/05/06 11:57:43;;;;;;;6.45;2.63;;;24.60;67.90;;;;;;10530021;28;20135;-24
2023/05/06 12:02:46;;;;;;;10.35;5.75;;;24.80;65.90;;;;;;10531756;28;20571;-24
2023/05/06 12:07:48;;;;;;;3.50;1.90;;;24.90;61.00;;;;;;10530441;28;20060;-24
2023/05/06 12:12:51;;;;;;;3.85;2.10;;;24.90;66.00;;;;;;10519510;28;20048;-23
2023/05/06 12:17:54;;;;;;;3.80;2.33;;;25.30;64.80;;;;;;10529375;28;20444;-24
2023/05/06 12:23:06;;;;;;;8.45;4.80;;;25.40;65.70;;;;;;10527742;28;20482;-24
2023/05/06 12:28:14;;;;;;;3.28;1.67;;;24.90;64.70;;;;;;10522706;28;20043;-23
2023/05/06 12:33:17;;;;;;;2.72;1.45;;;25.60;63.40;;;;;;10529945;28;20086;-24
2023/05/06 12:38:19;;;;;;;4.43;2.45;;;25.50;63.90;;;;;;10526373;28;20120;-24
2023/05/06 12:43:29;;;;;;;8.25;5.57;;;26.00;62.60;;;;;;10522150;28;20056;-23
2023/05/06 12:48:32;;;;;;;2.17;1.45;;;25.40;62.10;;;;;;10520984;28;20083;-23
2023/05/06 12:53:35;;;;;;;4.20;2.90;;;25.40;64.50;;;;;;10525859;28;20095;-24
2023/05/06 12:58:38;;;;;;;2.42;1.15;;;25.60;60.60;;;;;;10524868;28;20122;-25
2023/05/06 13:03:41;;;;;;;3.70;1.77;;;26.20;61.50;;;;;;10529929;28;20048;-23
2023/05/06 13:08:43;;;;;;;1.83;1.20;;;26.00;62.30;;;;;;10522341;28;20120;-24
2023/05/06 13:13:45;;;;;;;2.78;1.83;;;26.10;62.60;;;;;;10527025;28;20519;-24
2023/05/06 13:18:49;;;;;;;3.50;1.70;;;25.90;63.00;;;;;;10523455;28;20047;-24
2023/05/06 13:23:51;;;;;;;3.75;1.73;;;26.50;62.30;;;;;;10528836;28;20051;-24
2023/05/06 13:28:53;;;;;;;2.75;1.25;;;26.80;61.80;;;;;;10515985;28;20056;-23
2023/05/06 13:33:56;;;;;;;2.55;1.45;;;26.60;60.20;;;;;;10518987;28;20040;-23
2023/05/06 13:38:58;;;;;;;2.20;1.50;;;26.70;59.70;;;;;;10520832;28;20579;-24
2023/05/06 13:43:59;;;;;;;1.92;1.48;;;26.70;61.00;;;;;;10517903;28;20159;-23
2023/05/06 13:49:03;;;;;;;5.13;1.52;;;26.70;59.00;;;;;;10527655;28;20048;-24
2023/05/06 13:54:05;;;;;;;2.85;1.70;;;26.70;58.50;;;;;;10525229;28;20103;-21
2023/05/06 13:59:08;;;;;;;4.05;3.65;;;26.50;58.30;;;;;;10520931;28;20121;-24
2023/05/06 14:04:11;;;;;;;5.72;2.63;;;26.60;57.90;;;;;;10528434;28;20067;-24
2023/05/06 14:09:13;;;;;;;8.15;4.43;;;26.30;58.20;;;;;;10533678;28;20044;-23
2023/05/06 14:14:15;;;;;;;4.60;2.35;;;26.30;58.20;;;;;;10534510;28;20067;-23
2023/05/06 14:19:18;;;;;;;3.67;2.20;;;26.50;58.50;;;;;;10530860;28;20076;-22
2023/05/06 14:24:20;;;;;;;2.42;1.85;;;26.70;58.10;;;;;;10536793;28;20146;-24
2023/05/06 14:29:22;;;;;;;2.78;2.08;;;26.70;58.30;;;;;;10527223;28;20059;-24
2023/05/06 14:34:26;;;;;;;3.05;2.00;;;26.70;58.00;;;;;;10533291;28;20861;-23
2023/05/06 14:39:28;;;;;;;9.38;4.90;;;26.70;57.80;;;;;;10530300;28;20065;-24
2023/05/06 14:44:30;;;;;;;4.57;1.90;;;26.60;57.30;;;;;;10527359;28;20154;-23
2023/05/06 14:49:33;;;;;;;4.18;1.80;;;26.70;58.10;;;;;;10531696;28;20599;-25
2023/05/06 14:54:40;;;;;;;4.68;2.40;;;26.60;58.10;;;;;;10539105;28;20143;-22
2023/05/06 14:59:42;;;;;;;13.18;5.63;;;26.40;58.20;;;;;;10524429;28;20830;-23
2023/05/06 15:04:45;;;;;;;4.70;1.88;;;25.40;61.00;;;;;;10528811;28;20101;-24
2023/05/06 15:09:47;;;;;;;3.25;1.90;;;26.00;60.20;;;;;;10527938;28;20495;-24
2023/05/06 15:14:49;;;;;;;4.28;2.00;;;26.50;58.80;;;;;;10528011;28;20562;-24
2023/05/06 15:19:52;;;;;;;4.45;1.88;;;26.70;58.30;;;;;;10528500;28;20040;-23
2023/05/06 15:24:54;;;;;;;6.15;1.80;;;26.80;58.20;;;;;;10525617;28;20097;-25
2023/05/06 15:29:56;;;;;;;7.70;3.65;;;26.80;58.20;;;;;;10532912;28;20155;-23
2023/05/06 15:35:00;;;;;;;3.33;1.40;;;26.00;60.60;;;;;;10524605;28;20139;-24
2023/05/06 15:40:03;;;;;;;4.53;2.13;;;26.10;60.70;;;;;;10529296;28;20629;-24
2023/05/06 15:45:07;;;;;;;4.53;1.77;;;25.90;61.50;;;;;;10524968;28;20051;-24
2023/05/06 15:50:11;;;;;;;4.32;1.90;;;25.40;63.20;;;;;;10540841;28;20044;-25
2023/05/06 15:55:13;;;;;;;5.65;1.88;;;26.50;59.70;;;;;;10528015;28;20044;-25
2023/05/06 16:00:15;;;;;;;7.30;2.20;;;26.40;59.70;;;;;;10517563;28;20040;-23
2023/05/06 16:05:18;;;;;;;4.68;2.08;;;26.70;58.80;;;;;;10517628;28;20149;-31
2023/05/06 16:10:20;;;;;;;5.38;2.53;;;26.80;58.70;;;;;;10520268;28;20520;-24
2023/05/06 16:15:22;;;;;;;4.97;2.15;;;25.80;61.80;;;;;;10519607;28;20049;-24
2023/05/06 16:20:25;;;;;;;9.27;4.72;;;26.00;62.40;;;;;;10517593;28;20135;-24
2023/05/06 16:25:27;;;;;;;3.88;1.92;;;25.90;61.80;;;;;;10534027;28;20148;-23
2023/05/06 16:30:29;;;;;;;3.42;2.03;;;26.40;60.20;;;;;;10532070;28;20136;-24
2023/05/06 16:35:32;;;;;;;2.63;1.92;;;26.40;61.00;;;;;;10521481;28;20129;-25
2023/05/06 16:40:41;;;;;;;11.23;5.13;;;26.60;61.50;;;;;;10532063;28;20040;-25
2023/05/06 16:45:44;;;;;;;6.38;2.33;;;25.80;65.50;;;;;;10527362;28;20046;-25
2023/05/06 16:50:47;;;;;;;4.63;1.98;;;25.80;66.90;;;;;;10526776;28;20775;-24
2023/05/06 16:55:49;;;;;;;5.55;2.83;;;24.60;73.90;;;;;;10542679;28;20048;-24
2023/05/06 17:00:53;;;;;;;3.55;1.90;;;26.10;66.30;;;;;;10522779;28;20151;-24
2023/05/06 17:05:56;;;;;;;3.65;2.25;;;26.40;64.30;;;;;;10515255;28;20051;-24
2023/05/06 17:10:58;;;;;;;2.78;1.80;;;26.50;64.30;;;;;;10532502;28;20706;-24
2023/05/06 17:16:00;;;;;;;3.45;1.95;;;26.60;64.20;;;;;;10517808;28;20054;-24
2023/05/06 17:21:06;;;;;;;3.97;2.22;;;26.50;64.30;;;;;;10518728;28;20052;-24
2023/05/06 17:26:08;;;;;;;3.45;2.20;;;26.50;64.20;;;;;;10527300;28;20136;-25
2023/05/06 17:31:10;;;;;;;5.85;2.75;;;26.30;65.80;;;;;;10524291;28;20085;-24
2023/05/06 17:36:15;;;;;;;6.70;3.05;;;26.50;64.50;;;;;;10513022;28;20051;-25
2023/05/06 17:41:17;;;;;;;6.05;3.22;;;26.40;64.40;;;;;;10525333;28;20044;-24
2023/05/06 17:46:19;;;;;;;6.32;3.35;;;26.50;64.10;;;;;;10516638;28;20134;-23
2023/05/06 17:51:22;;;;;;;8.88;3.50;;;26.40;64.00;;;;;;10514764;28;20045;-23
2023/05/06 17:56:24;;;;;;;5.93;3.25;;;26.40;64.30;;;;;;10519130;28;20048;-24
2023/05/06 18:01:26;;;;;;;8.10;3.80;;;26.40;64.30;;;;;;10506282;28;20092;-24
2023/05/06 18:06:29;;;;;;;9.48;3.95;;;26.40;64.40;;;;;;10514924;28;20056;-24
2023/05/06 18:11:31;;;;;;;9.20;3.10;;;26.30;64.60;;;;;;10514587;28;20043;-23
2023/05/06 18:16:33;;;;;;;9.73;3.17;;;26.30;63.60;;;;;;10522835;28;20113;-24
2023/05/06 18:21:36;;;;;;;7.22;3.10;;;26.30;63.40;;;;;;10525228;28;20465;-24
2023/05/06 18:26:38;;;;;;;5.97;2.97;;;26.20;63.40;;;;;;10518828;28;20067;-24
2023/05/06 18:31:40;;;;;;;6.68;2.60;;;26.20;63.60;;;;;;10520327;28;20516;-24
2023/05/06 18:36:43;;;;;;;5.05;2.95;;;26.20;63.80;;;;;;10520813;28;21228;-24
2023/05/06 18:41:45;;;;;;;4.05;2.50;;;26.20;64.00;;;;;;10517063;28;20467;-24
2023/05/06 18:46:47;;;;;;;8.85;3.33;;;26.10;64.40;;;;;;10520814;28;20052;-25
2023/05/06 18:51:50;;;;;;;8.98;3.85;;;26.10;65.20;;;;;;10531238;28;20134;-23
2023/05/06 18:56:53;;;;;;;5.45;2.72;;;26.00;65.40;;;;;;10520449;28;20048;-25
2023/05/06 19:01:55;;;;;;;4.57;2.60;;;26.00;65.30;;;;;;10511042;28;20118;-24
2023/05/06 19:06:58;;;;;;;6.28;2.72;;;26.00;65.00;;;;;;10530367;28;20051;-24
2023/05/06 19:12:00;;;;;;;6.03;2.78;;;26.00;64.90;;;;;;10532101;28;20332;-24
2023/05/06 19:17:03;;;;;;;5.63;2.92;;;25.90;64.90;;;;;;10532226;28;20159;-24
2023/05/06 19:22:06;;;;;;;5.15;3.05;;;25.90;65.00;;;;;;10526608;28;20048;-24
2023/05/06 19:27:08;;;;;;;6.60;2.88;;;25.90;65.00;;;;;;10526182;28;20040;-24
2023/05/06 19:32:10;;;;;;;8.23;3.28;;;25.80;65.00;;;;;;10516244;28;20168;-25
2023/05/06 19:37:13;;;;;;;6.63;3.00;;;25.80;65.60;;;;;;10521382;28;20058;-24
2023/05/06 19:42:15;;;;;;;7.93;3.35;;;25.80;65.10;;;;;;10520843;28;20040;-24
2023/05/06 19:47:17;;;;;;;5.10;2.58;;;25.70;64.80;;;;;;10529582;28;20047;-24
2023/05/06 19:52:20;;;;;;;5.00;2.80;;;25.70;64.90;;;;;;10522105;28;20078;-24
2023/05/06 19:57:22;;;;;;;4.45;2.75;;;25.70;64.90;;;;;;10520914;28;20101;-25
2023/05/06 20:02:24;;;;;;;5.57;2.90;;;25.60;65.00;;;;;;10522666;28;20075;-24
2023/05/06 20:07:27;;;;;;;6.70;3.15;;;25.60;64.80;;;;;;10531497;28;20808;-24
2023/05/06 20:12:29;;;;;;;5.15;2.78;;;25.60;64.90;;;;;;10531616;28;20117;-24
2023/05/06 20:17:31;;;;;;;7.28;3.22;;;25.50;64.80;;;;;;10532613;28;20051;-25
2023/05/06 20:22:36;;;;;;;5.07;2.72;;;25.50;64.90;;;;;;10522748;28;20128;-25
2023/05/06 20:27:38;;;;;;;5.40;2.83;;;25.50;65.00;;;;;;10523351;28;20055;-25
2023/05/06 20:32:40;;;;;;;5.13;2.55;;;25.50;65.10;;;;;;10521373;28;20119;-24
2023/05/06 20:37:43;;;;;;;4.85;2.60;;;25.40;65.00;;;;;;10526010;28;20075;-24
2023/05/06 20:42:45;;;;;;;4.95;2.60;;;25.40;65.00;;;;;;10518662;28;20063;-24
2023/05/06 20:47:47;;;;;;;5.38;3.08;;;25.40;65.20;;;;;;10526960;28;20047;-24
2023/05/06 20:52:51;;;;;;;3.70;2.40;;;25.30;65.20;;;;;;10521185;28;20044;-24
2023/05/06 20:57:53;;;;;;;4.15;2.70;;;25.30;65.40;;;;;;10516107;28;20533;-25
2023/05/06 21:02:55;;;;;;;4.97;2.10;;;25.30;65.40;;;;;;10520457;28;20036;-24
2023/05/06 21:07:58;;;;;;;4.30;2.25;;;25.30;65.40;;;;;;10524270;28;20147;-24
2023/05/06 21:13:00;;;;;;;6.43;2.90;;;25.20;65.40;;;;;;10514497;28;20044;-24
2023/05/06 21:18:02;;;;;;;4.63;2.75;;;25.20;65.50;;;;;;10517733;28;20094;-24
2023/05/06 21:23:05;;;;;;;6.80;2.70;;;25.20;65.60;;;;;;10524460;28;20075;-24
2023/05/06 21:28:07;;;;;;;6.85;2.47;;;25.20;65.60;;;;;;10520010;28;20848;-24
2023/05/06 21:33:09;;;;;;;3.03;2.15;;;25.10;65.60;;;;;;10527051;28;20509;-24
2023/05/06 21:38:13;;;;;;;4.85;2.58;;;25.10;65.80;;;;;;10528570;28;20049;-25
2023/05/06 21:43:16;;;;;;;4.32;2.10;;;25.00;65.80;;;;;;10520209;28;20476;-23
2023/05/06 21:48:18;;;;;;;4.45;2.00;;;25.00;65.90;;;;;;10517597;28;20052;-24
2023/05/06 21:53:21;;;;;;;6.30;2.45;;;25.00;66.00;;;;;;10518645;28;20076;-24
2023/05/06 21:58:23;;;;;;;7.50;2.53;;;25.00;66.10;;;;;;10526344;28;20048;-24
2023/05/06 22:03:27;;;;;;;3.75;1.98;;;24.90;66.10;;;;;;10528833;28;20099;-24
2023/05/06 22:08:30;;;;;;;4.78;2.10;;;24.90;66.20;;;;;;10526822;28;20560;-24
2023/05/06 22:13:32;;;;;;;6.07;1.98;;;24.90;66.20;;;;;;10522838;28;20135;-24
2023/05/06 22:18:34;;;;;;;7.40;2.50;;;24.90;66.30;;;;;;10526169;28;20048;-23
2023/05/06 22:23:39;;;;;;;4.47;2.15;;;24.80;66.40;;;;;;10532176;28;20063;-24
2023/05/06 22:28:41;;;;;;;5.22;2.08;;;24.80;66.50;;;;;;10517762;28;20586;-24
2023/05/06 22:33:43;;;;;;;3.20;2.05;;;24.80;67.00;;;;;;10532946;28;20690;-24
2023/05/06 22:38:46;;;;;;;3.15;2.00;;;24.80;66.60;;;;;;10530700;28;20091;-24
2023/05/06 22:43:48;;;;;;;4.90;2.00;;;24.70;66.60;;;;;;10535404;28;20063;-23
2023/05/06 22:48:50;;;;;;;3.05;2.38;;;24.70;66.60;;;;;;10540073;28;20135;-24
2023/05/06 22:53:54;;;;;;;3.72;2.08;;;24.70;66.70;;;;;;10529974;28;20051;-24
2023/05/06 22:58:56;;;;;;;5.80;2.53;;;24.70;66.80;;;;;;10521831;28;20050;-24
2023/05/06 23:03:58;;;;;;;3.53;1.90;;;24.60;66.90;;;;;;10522094;28;20080;-24
2023/05/06 23:09:01;;;;;;;4.75;1.90;;;24.60;66.90;;;;;;10533609;28;20051;-23
2023/05/06 23:14:03;;;;;;;4.30;1.77;;;24.60;67.00;;;;;;10516795;28;20060;-24
2023/05/06 23:19:05;;;;;;;5.47;1.90;;;24.60;67.10;;;;;;10537580;28;20144;-24
2023/05/06 23:24:09;;;;;;;4.63;2.28;;;24.50;67.10;;;;;;10503644;28;20040;-24
2023/05/06 23:29:10;;;;;;;2.88;1.85;;;24.50;67.20;;;;;;10513420;28;20518;-24
2023/05/06 23:34:12;;;;;;;4.50;2.20;;;24.50;67.20;;;;;;10527974;28;20121;-24
2023/05/06 23:39:16;;;;;;;;;;;24.50;67.30;;;;;;10536575;28;20044;-23
2023/05/06 23:44:18;;;;;;;4.65;2.08;;;24.40;67.40;;;;;;10529179;28;20020;-23
2023/05/06 23:49:20;;;;;;;5.55;2.33;;;24.40;67.40;;;;;;10529710;28;20063;-22
2023/05/06 23:54:23;;;;;;;6.00;2.55;;;24.30;67.60;;;;;;10529906;28;20139;-24
2023/05/06 23:59:25;;;;;;;3.85;2.20;;;24.30;67.90;;;;;;10522459;28;20136;-23
